MDT,Max TemperatureF,Mean TemperatureF,Min TemperatureF,Max Dew PointF,MeanDew PointF,Min DewpointF,Max Humidity, Mean Humidity, Min Humidity, Max Sea Level PressureIn, Mean Sea Level PressureIn, Min Sea Level PressureIn, Max VisibilityMiles, Mean VisibilityMiles, Min VisibilityMiles, Max Wind SpeedMPH, Mean Wind SpeedMPH, Max Gust SpeedMPH,PrecipitationIn, CloudCover, Events, WindDirDegrees
2010-10-1,85,62,38,37,33,27,70,42,13,30.14,30.08,30.02,10,10,10,9,2,13,0.00,0,,95
2010-10-2,86,64,41,38,34,28,70,42,13,30.13,30.03,29.94,10,10,10,12,2,15,0.00,0,,308
2010-10-3,76,60,43,52,41,33,89,57,25,29.96,29.90,29.80,10,10,6,24,3,32,0.07,3,Rain,15
2010-10-4,54,51,48,52,48,42,96,84,71,29.98,29.92,29.82,10,8,2,15,4,21,0.18,8,Rain,302
2010-10-5,62,52,42,42,40,37,86,68,49,30.24,30.14,29.98,10,10,10,17,9,25,0.00,4,,355
2010-10-6,65,51,36,45,40,36,100,72,44,30.23,30.12,29.97,10,10,2,8,2,9,0.00,2,,226
2010-10-7,58,48,37,48,43,36,100,75,50,30.08,30.03,29.96,10,8,0,18,4,23,0.08,4,Fog-Rain-Thunderstorm,191
2010-10-8,50,42,33,43,38,34,100,89,77,30.31,30.19,30.07,10,9,1,7,1,8,T,5,,30
2010-10-9,60,46,32,43,36,30,100,76,51,30.40,30.33,30.27,10,5,0,8,2,10,0.00,5,Fog,76
2010-10-10,66,56,45,51,45,41,93,71,48,30.35,30.22,30.06,10,10,8,12,1,15,0.10,6,Rain,269
2010-10-11,53,43,33,52,40,27,100,69,38,30.41,30.22,30.05,10,10,10,14,7,18,T,5,Rain,289
2010-10-12,57,41,25,30,24,17,88,55,22,30.51,30.45,30.38,10,10,10,9,3,12,0.00,0,,317
2010-10-13,66,46,26,29,24,17,81,49,16,30.49,30.41,30.31,10,10,10,9,2,,0.00,0,,140
2010-10-14,68,48,28,31,26,21,85,51,17,30.34,30.25,30.14,10,10,10,16,3,20,0.00,0,,199
2010-10-15,62,49,35,36,31,24,85,55,25,30.18,30.12,30.05,10,10,10,13,3,16,0.00,2,,326
2010-10-16,60,47,33,40,36,28,92,70,47,30.15,30.07,30.01,10,10,9,12,1,13,0.01,5,,339
2010-10-17,60,47,34,37,30,22,85,54,23,30.15,30.09,30.02,10,10,10,10,3,13,0.00,3,,312
2010-10-18,60,42,23,25,19,11,88,52,15,30.27,30.20,30.12,10,10,6,13,3,16,0.00,0,,279
2010-10-19,63,44,25,29,23,16,81,52,23,30.28,30.20,30.12,10,10,10,14,2,16,0.00,0,,293
2010-10-20,34,31,28,27,26,24,85,81,75,30.17,30.11,30.05,10,10,10,4,0,,0.00,0,,30
2010-10-21,65,46,28,32,29,25,85,49,25,30.06,29.98,29.90,10,10,10,7,2,,0.00,0,,236
2010-10-22,59,47,34,32,30,28,82,58,33,29.95,29.88,29.81,10,10,10,10,2,13,0.00,2,,277
2010-10-23,43,37,30,39,36,26,100,88,76,29.91,29.87,29.81,10,10,2,15,4,20,0.24,7,Rain,158
2010-10-24,46,39,32,41,37,27,92,81,70,29.81,29.59,29.39,10,10,8,13,9,20,T,7,Rain,161
2010-10-25,36,34,32,31,28,26,85,80,75,29.89,29.81,29.59,10,8,1,20,7,25,T,8,Snow,156
2010-10-26,35,32,28,30,28,25,100,85,69,30.13,29.89,29.79,10,6,0,6,3,7,0.04,8,Fog-Snow,321
2010-10-27,41,35,28,28,27,25,100,77,54,30.33,30.23,30.07,10,10,10,18,4,24,0.00,6,,127
2010-10-28,54,42,30,32,25,19,92,60,28,30.30,30.16,30.05,10,10,10,3,4,5,0.00,5,,135
2010-10-29,47,40,32,35,31,28,92,71,49,30.12,30.06,30.03,10,10,8,15,3,20,T,7,Rain,111
2010-10-30,56,43,29,34,30,25,100,66,32,30.02,29.91,29.80,10,9,2,8,1,13,0.00,5,,348
2010-10-31,43,39,34,37,35,31,100,88,76,30.33,30.13,29.92,10,9,1,3,6,3,0.18,7,Rain,139